This is the latest recevied weather packets stored in our database for station/object PY2KO-3. If no packets are shown the sender has not sent any weather packets the latest 10 day(s).
| Time | Temp. | Humidity | Pressure | Rain* | Wind** | Luminosity | Snow |
|---|---|---|---|---|---|---|---|
| 1777292353 | 25.56° C | 62% | 1016.1 hPa | - | - | - | - |
| 1777291454 | 25° C | 67% | 1016.1 hPa | - | - | - | - |
| 1777290552 | 25° C | 73% | 1016.2 hPa | - | - | - | - |
| 1777289652 | 22.78° C | 81% | 1016.8 hPa | - | - | - | - |
| 1777288752 | 22.22° C | 83% | 1016.9 hPa | - | - | - | - |
| 1777287852 | 22.22° C | 80% | 1016.8 hPa | - | - | - | - |
| 1777286953 | 21.67° C | 81% | 1016.8 hPa | - | - | - | - |
| 1777286054 | 21.11° C | 83% | 1016.8 hPa | - | - | - | - |
| 1777285157 | 20.56° C | 87% | 1016.6 hPa | - | - | - | - |
| 1777284259 | 20° C | 86% | 1016.9 hPa | - | - | - | - |
| 1777283353 | 19.44° C | 87% | 1016.8 hPa | - | - | - | - |
| 1777282454 | 19.44° C | 86% | 1016.8 hPa | - | - | - | - |
| 1777281552 | 18.89° C | 85% | 1016.7 hPa | - | - | - | - |
| 1777280651 | 18.89° C | 87% | 1016.3 hPa | - | - | - | - |
| 1777279751 | 18.89° C | 84% | 1016.3 hPa | - | - | - | - |
| 1777278852 | 18.89° C | 84% | 1015.8 hPa | - | - | - | - |
| 1777277952 | 18.89° C | 84% | 1015.4 hPa | - | - | - | - |
| 1777277053 | 18.89° C | 84% | 1015.3 hPa | - | - | - | - |
| 1777276152 | 18.89° C | 84% | 1015.1 hPa | - | - | - | - |
| 1777275251 | 19.44° C | 83% | 1015 hPa | - | - | - | - |
| 1777274352 | 19.44° C | 82% | 1015 hPa | - | - | - | - |
| 1777273452 | 19.44° C | 83% | 1015.3 hPa | - | - | - | - |
| 1777272552 | 20° C | 81% | 1014.9 hPa | - | - | - | - |
| 1777271652 | 20° C | 81% | 1015 hPa | - | - | - | - |
| 1777270752 | 20° C | 82% | 1015 hPa | - | - | - | - |
* Rain since midnight (hover to see other rain measurements)
** Current wind speed in m/s (hover to see current wind gust speed)